Time;durP1;ratioP1;P1;durP2;ratioP2;P2;SDS_P1;SDS_P2;PMS_P1;PMS_P2;Temp;Humidity;BMP_temperature;BMP_pressure;BME280_temperature;BME280_humidity;BME280_pressure;Samples;Min_cycle;Max_cycle;Signal;HPM_P1;HPM_P2
2021/06/19 00:00:21;;;;;;;10.25;9.32;;;22.90;99.90;;;24.13;72.69;99842.75;5114269;28;20202;-61
2021/06/19 00:02:51;;;;;;;9.80;8.90;;;22.90;99.90;;;24.30;71.22;99842.00;5114409;28;20199;-61
2021/06/19 00:05:20;;;;;;;9.77;8.98;;;22.90;99.90;;;24.10;72.10;99835.91;5114166;28;20203;-62
2021/06/19 00:07:48;;;;;;;10.18;9.18;;;22.90;99.90;;;24.05;72.84;99841.56;5113964;28;20243;-61
2021/06/19 00:10:18;;;;;;;9.98;9.18;;;22.90;99.90;;;24.05;73.05;99838.81;5113690;28;20290;-61
2021/06/19 00:12:50;;;;;;;9.65;8.80;;;22.80;99.90;;;24.18;72.63;99848.09;5114097;28;20190;-61
2021/06/19 00:15:22;;;;;;;9.77;8.98;;;22.80;99.90;;;24.13;72.46;99830.91;5113646;28;20896;-61
2021/06/19 00:17:52;;;;;;;10.07;9.27;;;22.80;99.90;;;24.00;73.49;99846.38;5113707;28;20274;-61
2021/06/19 00:20:25;;;;;;;9.75;8.95;;;22.80;99.90;;;24.03;73.51;99832.78;5113787;28;20199;-61
2021/06/19 00:22:54;;;;;;;13.13;10.20;;;22.80;99.90;;;23.93;73.75;99846.78;5113871;28;20271;-62
2021/06/19 00:25:25;;;;;;;9.50;8.73;;;22.70;99.90;;;23.87;74.06;99836.25;5113804;28;20290;-61
2021/06/19 00:27:54;;;;;;;9.85;8.93;;;22.70;99.90;;;23.73;75.61;99841.81;5113859;28;20538;-62
2021/06/19 00:30:23;;;;;;;10.45;9.55;;;22.60;99.90;;;23.67;75.99;99834.84;5113724;28;20199;-60
2021/06/19 00:32:53;;;;;;;10.05;9.15;;;22.60;99.90;;;23.62;76.02;99834.13;5113449;28;20222;-62
2021/06/19 00:35:22;;;;;;;10.48;9.45;;;22.50;99.90;;;23.81;75.28;99837.50;5113428;28;20258;-61
2021/06/19 00:37:51;;;;;;;10.07;9.27;;;22.50;99.90;;;23.77;75.63;99842.00;5113537;28;20202;-62
2021/06/19 00:40:21;;;;;;;9.95;9.15;;;22.50;99.90;;;23.76;76.02;99843.16;5113586;28;20279;-61
2021/06/19 00:42:55;;;;;;;9.48;8.63;;;22.40;99.90;;;23.70;76.90;99853.47;5113955;28;20199;-62
2021/06/19 00:45:25;;;;;;;10.32;9.43;;;22.50;99.90;;;23.81;76.86;99843.00;5113072;28;20631;-61
2021/06/19 00:47:55;;;;;;;10.85;9.85;;;22.40;99.90;;;23.66;77.25;99835.16;5113032;28;20202;-61
2021/06/19 00:50:25;;;;;;;10.85;9.93;;;22.40;99.90;;;23.66;76.81;99840.66;5113396;28;20183;-63
2021/06/19 00:52:55;;;;;;;10.40;9.50;;;22.40;99.90;;;23.60;77.24;99834.47;5112832;28;20227;-61
2021/06/19 00:55:23;;;;;;;10.32;9.40;;;22.30;99.90;;;23.56;77.84;99835.41;5113187;28;20215;-61
2021/06/19 00:57:52;;;;;;;10.35;9.32;;;22.30;99.90;;;23.55;77.78;99839.25;5113185;28;20227;-63
2021/06/19 01:00:22;;;;;;;9.55;8.85;;;22.30;99.90;;;23.48;77.45;99836.94;5112919;28;20222;-62
2021/06/19 01:02:57;;;;;;;9.43;8.68;;;22.30;99.90;;;23.49;77.55;99837.78;5112559;28;20230;-62
2021/06/19 01:05:26;;;;;;;10.20;9.30;;;22.20;99.90;;;23.49;76.96;99837.78;5113082;28;20229;-63
2021/06/19 01:07:57;;;;;;;9.05;8.27;;;22.20;99.90;;;23.46;76.46;99838.41;5113048;28;20199;-63
2021/06/19 01:10:25;;;;;;;9.98;9.07;;;22.20;99.90;;;23.61;75.45;99840.78;5112992;28;20185;-63
2021/06/19 01:12:54;;;;;;;8.73;7.90;;;22.20;99.90;;;23.46;76.14;99839.19;5113044;28;20199;-63
2021/06/19 01:15:23;;;;;;;9.40;8.60;;;22.20;99.90;;;23.50;76.13;99836.63;5112834;28;20219;-63
2021/06/19 01:17:51;;;;;;;9.57;8.68;;;22.20;99.90;;;23.55;75.92;99833.75;5112592;28;20203;-63
2021/06/19 01:20:22;;;;;;;9.40;8.55;;;22.20;99.90;;;23.48;75.61;99831.44;5112825;28;20203;-63
2021/06/19 01:22:56;;;;;;;9.45;8.65;;;22.20;99.90;;;23.47;75.39;99840.84;5112694;28;20201;-63
2021/06/19 01:25:29;;;;;;;9.48;8.65;;;22.20;99.90;;;23.49;74.82;99829.53;5112868;28;20207;-62
2021/06/19 01:27:59;;;;;;;8.65;7.95;;;22.10;99.90;;;23.51;74.54;99827.28;5112916;28;20236;-63
2021/06/19 01:30:29;;;;;;;9.13;8.32;;;22.20;99.90;;;23.49;74.05;99827.56;5112461;28;20666;-63
2021/06/19 01:32:58;;;;;;;10.98;9.18;;;22.20;99.90;;;23.57;74.12;99824.09;5112352;28;20224;-63
2021/06/19 01:35:27;;;;;;;9.23;8.32;;;22.20;99.90;;;23.62;72.47;99818.44;5112494;28;20304;-63
2021/06/19 01:37:57;;;;;;;9.02;8.30;;;22.20;99.90;;;23.82;70.68;99822.59;5112246;28;20199;-63
2021/06/19 01:40:29;;;;;;;9.48;8.68;;;22.30;99.90;;;23.61;71.69;99824.28;5112622;28;20182;-64
2021/06/19 01:42:59;;;;;;;8.80;8.10;;;22.30;99.90;;;23.56;72.15;99827.94;5112624;28;20249;-62
2021/06/19 01:45:31;;;;;;;9.88;8.23;;;22.30;99.90;;;23.62;70.96;99829.47;5112267;28;20278;-63
2021/06/19 01:48:02;;;;;;;8.73;7.97;;;22.30;99.90;;;23.93;69.58;99822.03;5102035;28;20220;-63
2021/06/19 01:50:31;;;;;;;8.23;7.47;;;22.40;99.90;;;23.80;69.69;99822.94;5091887;28;20618;-62
2021/06/19 01:53:00;;;;;;;8.50;7.90;;;22.40;99.90;;;23.66;70.48;99824.16;5091650;28;20657;-63
2021/06/19 01:55:30;;;;;;;8.25;7.65;;;22.40;99.90;;;23.61;70.89;99818.78;5092012;28;20291;-62
2021/06/19 01:58:01;;;;;;;8.95;8.25;;;22.40;99.90;;;23.65;70.71;99817.81;5092177;28;20320;-64
2021/06/19 02:00:31;;;;;;;8.80;7.90;;;22.40;99.90;;;23.73;69.72;99819.81;5091769;28;20590;-63
2021/06/19 02:02:59;;;;;;;8.13;7.50;;;22.30;99.90;;;23.67;70.09;99815.56;5091762;28;20287;-63
2021/06/19 02:05:28;;;;;;;8.48;7.88;;;22.40;99.90;;;23.61;70.18;99824.28;5091987;28;20726;-65
2021/06/19 02:07:59;;;;;;;8.38;7.70;;;22.30;99.90;;;23.55;70.86;99826.31;5091899;28;20199;-63
2021/06/19 02:10:31;;;;;;;9.35;8.50;;;22.30;99.90;;;23.53;70.88;99825.81;5091668;28;20291;-63
2021/06/19 02:13:01;;;;;;;9.27;8.48;;;22.30;99.90;;;23.88;68.93;99824.91;5092360;28;20189;-62
2021/06/19 02:15:30;;;;;;;8.70;8.00;;;22.40;99.90;;;23.74;70.36;99824.19;5095710;28;20636;-63
2021/06/19 02:17:58;;;;;;;9.63;8.73;;;22.40;99.90;;;23.60;71.05;99828.94;5095813;28;20580;-63
2021/06/19 02:20:27;;;;;;;8.82;8.05;;;22.30;99.90;;;23.52;71.12;99823.38;5095829;28;20269;-63
2021/06/19 02:22:57;;;;;;;9.70;8.40;;;22.30;99.90;;;23.67;70.97;99829.31;5095745;28;20298;-63
2021/06/19 02:25:29;;;;;;;9.55;8.68;;;22.30;99.90;;;23.71;71.12;99830.31;5095773;28;20201;-63
2021/06/19 02:28:05;;;;;;;8.93;8.23;;;22.30;99.90;;;23.68;71.96;99828.19;5095809;28;20219;-63
2021/06/19 02:30:37;;;;;;;9.60;8.60;;;22.30;99.90;;;24.05;69.93;99830.53;5095721;28;20184;-64
2021/06/19 02:33:07;;;;;;;9.15;8.30;;;22.40;99.90;;;23.72;70.98;99840.19;5095588;28;20215;-63
2021/06/19 02:35:38;;;;;;;8.70;8.00;;;22.40;99.90;;;23.71;71.63;99848.78;5095268;28;20653;-63
2021/06/19 02:38:07;;;;;;;9.32;8.52;;;22.40;99.90;;;23.73;71.76;99850.06;5095120;28;20747;-64
2021/06/19 02:40:38;;;;;;;9.73;8.82;;;22.40;99.90;;;23.63;72.76;99855.00;5095186;28;20291;-62
2021/06/19 02:43:09;;;;;;;9.55;8.63;;;22.30;99.90;;;23.54;73.50;99862.41;5095456;28;20275;-64
2021/06/19 02:45:37;;;;;;;9.98;9.07;;;22.30;99.90;;;23.17;75.50;99858.00;5095528;28;20268;-63
2021/06/19 02:48:07;;;;;;;9.57;8.68;;;22.20;99.90;;;23.13;76.00;99856.19;5094839;28;20290;-63
2021/06/19 02:50:39;;;;;;;9.50;8.65;;;22.10;99.90;;;23.16;76.06;99861.88;5095616;28;20184;-63
2021/06/19 02:53:09;;;;;;;10.10;9.30;;;22.00;99.90;;;23.39;75.70;99860.81;5095347;28;20311;-64
2021/06/19 02:55:40;;;;;;;9.82;8.98;;;22.00;99.90;;;23.57;74.98;99865.34;5095817;28;20287;-61
2021/06/19 02:58:11;;;;;;;10.15;9.32;;;22.10;99.90;;;23.61;74.87;99860.81;5095645;28;20204;-61
2021/06/19 03:00:40;;;;;;;9.90;9.00;;;22.20;99.90;;;23.78;72.90;99860.94;5095520;28;20180;-62
2021/06/19 03:03:09;;;;;;;9.95;9.10;;;22.30;99.90;;;23.76;72.67;99852.19;5095600;28;20201;-61
2021/06/19 03:05:39;;;;;;;9.90;9.05;;;22.40;99.90;;;23.43;73.90;99852.75;5095820;28;20303;-61
2021/06/19 03:08:08;;;;;;;9.90;9.10;;;22.30;99.90;;;23.24;74.44;99854.84;5095619;28;20288;-61
2021/06/19 03:10:39;;;;;;;10.35;9.45;;;22.20;99.90;;;23.18;75.72;99843.16;5095668;28;20223;-62
2021/06/19 03:13:08;;;;;;;9.40;8.60;;;22.10;99.90;;;23.10;75.89;99843.88;5095768;28;20267;-62
2021/06/19 03:15:36;;;;;;;9.73;8.77;;;22.00;99.90;;;23.56;73.53;99860.16;5095554;28;20204;-61
2021/06/19 03:18:06;;;;;;;10.63;9.57;;;22.10;99.90;;;23.07;76.84;99866.47;5095236;28;20224;-61
2021/06/19 03:20:34;;;;;;;10.55;9.15;;;22.10;99.90;;;23.00;76.90;99877.09;5095350;28;20291;-61
2021/06/19 03:23:04;;;;;;;9.43;8.63;;;22.00;99.90;;;22.91;78.36;99878.94;5095220;28;20200;-61
2021/06/19 03:25:36;;;;;;;9.77;8.90;;;21.90;99.90;;;22.91;78.51;99884.44;5094759;28;20278;-62
2021/06/19 03:28:06;;;;;;;10.18;9.30;;;21.90;99.90;;;23.38;76.03;99886.69;5094945;28;20662;-62
2021/06/19 03:30:38;;;;;;;9.90;9.10;;;21.90;99.90;;;23.30;76.22;99879.19;5094661;28;20200;-61
2021/06/19 03:33:10;;;;;;;10.48;9.52;;;22.00;99.90;;;23.58;74.91;99874.38;5095063;28;20274;-62
2021/06/19 03:35:39;;;;;;;9.75;8.93;;;22.10;99.90;;;23.78;74.01;99871.97;5094796;28;20196;-61
2021/06/19 03:38:07;;;;;;;10.15;9.35;;;22.30;99.90;;;23.87;73.42;99880.28;5094492;28;20250;-62
2021/06/19 03:40:37;;;;;;;9.98;8.98;;;22.40;99.90;;;23.72;74.27;99873.22;5094705;28;20204;-62
2021/06/19 03:43:06;;;;;;;10.40;9.48;;;22.40;99.90;;;23.91;73.73;99878.53;5094932;28;20238;-61
2021/06/19 03:45:37;;;;;;;10.02;9.23;;;22.40;99.90;;;24.01;72.96;99876.38;5094898;28;20239;-62
2021/06/19 03:48:07;;;;;;;9.40;8.63;;;22.60;99.90;;;23.63;75.05;99880.59;5094292;28;20593;-61
2021/06/19 03:50:36;;;;;;;9.95;9.07;;;22.50;99.90;;;24.11;73.14;99872.53;5094782;28;20180;-62
2021/06/19 03:53:05;;;;;;;10.48;9.23;;;22.60;99.90;;;23.94;73.58;99862.19;5093271;28;20220;-61
2021/06/19 03:55:33;;;;;;;10.15;9.15;;;22.60;99.90;;;23.93;73.64;99859.75;5093882;28;20202;-61
2021/06/19 03:58:02;;;;;;;10.10;9.10;;;22.60;99.90;;;23.94;73.62;99859.44;5094380;28;20316;-61
2021/06/19 04:00:31;;;;;;;9.32;8.52;;;22.60;99.90;;;23.84;73.75;99873.47;5094677;28;20210;-62
2021/06/19 04:03:02;;;;;;;10.00;9.27;;;22.70;99.90;;;23.98;73.71;99876.97;5094378;28;20210;-61
2021/06/19 04:05:30;;;;;;;10.48;9.43;;;22.60;99.90;;;24.26;72.22;99871.28;5094470;28;20191;-61
2021/06/19 04:07:58;;;;;;;10.30;9.35;;;22.80;99.90;;;24.73;70.10;99871.34;5094025;28;20715;-61
2021/06/19 04:10:26;;;;;;;10.02;9.07;;;23.00;99.90;;;24.44;71.63;99870.25;5094409;28;20294;-61
2021/06/19 04:12:55;;;;;;;9.85;8.95;;;23.10;99.90;;;24.54;71.26;99872.72;5094058;28;20753;-62
2021/06/19 04:15:23;;;;;;;10.10;9.30;;;23.10;99.90;;;24.67;70.68;99866.28;5094391;28;20290;-62
2021/06/19 04:17:52;;;;;;;10.95;9.85;;;23.30;99.90;;;24.89;69.75;99868.97;5094173;28;20335;-60
2021/06/19 04:20:21;;;;;;;9.80;9.00;;;23.40;99.90;;;24.89;69.36;99857.94;5094326;28;20207;-61
2021/06/19 04:22:50;;;;;;;9.70;8.80;;;23.50;99.90;;;24.91;69.59;99866.72;5094156;28;20196;-61
2021/06/19 04:25:20;;;;;;;10.30;9.25;;;23.60;99.90;;;25.12;68.36;99863.00;5093936;28;20204;-62
2021/06/19 04:27:51;;;;;;;10.82;9.80;;;23.70;99.90;;;25.22;68.14;99859.13;5094084;28;20218;-63
2021/06/19 04:30:21;;;;;;;10.90;9.23;;;23.80;99.90;;;25.32;67.55;99860.78;5094140;28;20216;-63
2021/06/19 04:32:51;;;;;;;9.85;8.95;;;23.90;99.90;;;25.20;67.90;99864.13;5093713;28;20681;-61
2021/06/19 04:35:23;;;;;;;10.32;9.25;;;23.90;99.90;;;25.29;67.05;99871.31;5093648;28;20202;-61
2021/06/19 04:37:51;;;;;;;10.68;9.52;;;24.00;99.90;;;25.40;66.68;99871.03;5093389;28;20209;-62
2021/06/19 04:40:28;;;;;;;10.10;9.32;;;24.00;99.90;;;25.66;65.22;99874.56;5093946;28;20292;-61
2021/06/19 04:42:59;;;;;;;9.73;8.85;;;24.20;99.90;;;25.69;64.92;99863.69;5094009;28;20545;-61
2021/06/19 04:45:28;;;;;;;9.52;8.63;;;24.30;99.90;;;25.82;65.22;99875.69;5093677;28;20638;-61
2021/06/19 04:47:59;;;;;;;9.60;8.80;;;24.40;99.90;;;26.10;63.60;99866.72;5093460;28;20291;-62
2021/06/19 04:50:30;;;;;;;9.25;8.45;;;24.60;99.90;;;27.28;60.38;99860.16;5093301;28;20222;-61
2021/06/19 04:52:59;;;;;;;9.60;8.18;;;24.90;99.90;;;29.89;51.82;99862.25;5093163;28;20319;-62
2021/06/19 04:55:29;;;;;;;9.13;8.27;;;26.10;99.90;;;31.78;46.28;99870.88;5093376;28;20683;-62
2021/06/19 04:58:02;;;;;;;8.95;8.15;;;27.40;99.90;;;33.23;42.11;99875.06;5093279;28;20315;-61
2021/06/19 05:00:33;;;;;;;9.30;8.40;;;28.80;99.90;;;33.89;39.96;99874.34;5092829;28;20204;-62
2021/06/19 05:03:02;;;;;;;9.50;7.65;;;30.00;99.90;;;35.13;37.57;99875.16;5093451;28;20311;-62
2021/06/19 05:05:32;;;;;;;8.88;8.07;;;31.00;99.90;;;35.81;35.92;99877.13;5093363;28;20273;-62
2021/06/19 05:08:02;;;;;;;8.45;7.65;;;32.00;99.90;;;36.06;36.03;99880.84;5093045;28;20295;-61
2021/06/19 05:10:30;;;;;;;7.55;6.93;;;32.60;99.90;;;36.49;34.88;99884.56;5092969;28;20294;-62
2021/06/19 05:12:58;;;;;;;7.05;6.50;;;33.00;99.90;;;37.08;34.09;99882.94;5092386;28;20551;-61
2021/06/19 05:15:27;;;;;;;7.68;6.97;;;33.40;99.90;;;37.72;32.64;99887.25;5093118;28;20196;-62
2021/06/19 05:17:56;;;;;;;9.38;7.28;;;33.80;99.90;;;38.26;31.61;99888.63;5092956;28;20215;-66
2021/06/19 05:20:28;;;;;;;7.60;6.90;;;34.30;99.90;;;37.58;32.58;99893.69;5093562;28;20264;-65
2021/06/19 05:22:59;;;;;;;11.15;7.88;;;34.70;99.90;;;37.61;32.78;99897.72;5092456;28;20181;-65
2021/06/19 05:25:28;;;;;;;9.70;7.32;;;34.80;99.90;;;37.71;33.15;99902.53;5093302;28;20192;-65
2021/06/19 05:27:56;;;;;;;9.45;7.95;;;34.70;99.90;;;36.03;34.96;99904.09;5093232;28;20192;-65
2021/06/19 05:30:24;;;;;;;8.68;7.85;;;34.30;99.90;;;35.25;37.20;99902.84;5092671;28;20191;-66
2021/06/19 05:32:52;;;;;;;8.95;8.15;;;33.70;99.90;;;34.38;38.74;99900.09;5091871;28;20682;-66
2021/06/19 05:35:20;;;;;;;7.85;7.15;;;33.00;99.90;;;33.53;41.06;99895.47;5092899;28;20204;-63
2021/06/19 05:37:49;;;;;;;8.63;7.82;;;32.10;99.90;;;33.15;42.07;99899.28;5092756;28;20233;-64
2021/06/19 05:40:18;;;;;;;10.02;8.27;;;31.40;99.90;;;31.77;45.59;99911.06;5093498;28;20291;-63
2021/06/19 05:42:47;;;;;;;10.57;8.35;;;30.90;99.90;;;30.93;47.69;99899.59;5092800;28;20267;-63
2021/06/19 05:45:16;;;;;;;9.23;7.97;;;30.30;99.90;;;30.72;47.80;99907.41;5093355;28;20287;-62
2021/06/19 05:47:44;;;;;;;9.32;8.38;;;29.80;99.90;;;30.31;49.21;99901.56;5092574;28;20602;-63
2021/06/19 05:50:12;;;;;;;9.68;8.68;;;29.40;99.90;;;29.74;51.94;99896.34;5092622;28;20210;-64
2021/06/19 05:52:41;;;;;;;9.88;9.00;;;29.10;99.90;;;29.52;52.21;99897.66;5092394;28;20314;-63
2021/06/19 05:55:15;;;;;;;11.88;9.32;;;28.80;99.90;;;29.41;52.32;99906.84;5092887;28;20294;-62
2021/06/19 05:57:44;;;;;;;9.40;8.55;;;28.70;99.90;;;29.35;52.43;99899.91;5092613;28;20738;-63
2021/06/19 06:00:14;;;;;;;10.05;9.10;;;28.60;99.90;;;29.19;52.51;99901.78;5092601;28;20235;-63
2021/06/19 06:02:43;;;;;;;9.88;9.07;;;28.50;99.90;;;28.84;52.75;99897.88;5093098;28;20192;-62
2021/06/19 06:05:13;;;;;;;9.85;8.85;;;28.20;99.90;;;28.97;52.90;99900.28;5092450;28;20210;-63
2021/06/19 06:07:41;;;;;;;9.82;8.98;;;28.20;99.90;;;29.02;52.86;99900.06;5092048;28;20267;-63
2021/06/19 06:10:10;;;;;;;10.38;9.30;;;28.10;99.90;;;29.37;52.14;99905.91;5092045;28;20207;-62
2021/06/19 06:12:39;;;;;;;10.02;9.30;;;28.30;99.90;;;29.53;51.19;99910.38;5089888;28;20279;-63
2021/06/19 06:15:09;;;;;;;10.00;9.10;;;28.50;99.90;;;29.56;51.59;99903.34;5091779;28;20552;-64
2021/06/19 06:17:37;;;;;;;10.30;9.27;;;28.60;99.90;;;29.83;50.54;99899.78;5089120;28;20637;-63
2021/06/19 06:20:07;;;;;;;10.43;9.25;;;28.70;99.90;;;29.94;50.19;99912.00;5092209;28;20200;-63
2021/06/19 06:22:36;;;;;;;10.38;9.30;;;28.90;99.90;;;29.98;50.46;99910.16;5091693;28;20271;-63
2021/06/19 06:25:05;;;;;;;9.80;8.80;;;28.90;99.90;;;30.01;49.85;99911.38;5092441;28;20196;-63
2021/06/19 06:27:33;;;;;;;10.07;9.18;;;29.00;99.90;;;29.87;49.79;99914.56;5092086;28;20558;-63
2021/06/19 06:30:01;;;;;;;10.63;9.40;;;29.00;99.90;;;29.75;51.03;99921.00;5091889;28;20242;-64
2021/06/19 06:32:33;;;;;;;10.07;9.18;;;28.90;99.90;;;29.76;50.97;99930.16;5091753;28;20282;-62
2021/06/19 06:35:02;;;;;;;10.25;9.20;;;28.90;99.90;;;29.60;51.83;99930.03;5091864;28;20267;-63
2021/06/19 06:37:30;;;;;;;10.10;9.18;;;28.90;99.90;;;29.53;52.73;99927.03;5090774;28;20261;-64
2021/06/19 06:39:58;;;;;;;11.45;9.00;;;28.80;99.90;;;29.42;53.17;99941.78;5091584;28;20230;-63
2021/06/19 06:42:26;;;;;;;10.15;9.13;;;28.60;99.90;;;29.30;52.92;99945.38;5091402;28;20253;-63
2021/06/19 06:44:54;;;;;;;9.60;8.70;;;28.50;99.90;;;29.30;53.95;99941.78;5091507;28;20200;-62
2021/06/19 06:47:22;;;;;;;9.80;8.60;;;28.40;99.90;;;29.05;53.21;99927.09;5091515;28;20206;-63
2021/06/19 06:49:51;;;;;;;9.65;8.75;;;28.20;99.90;;;29.07;52.80;99932.31;5091350;28;20296;-62
2021/06/19 06:52:19;;;;;;;12.07;8.68;;;28.10;99.90;;;28.99;52.81;99938.78;5091224;28;20315;-63
2021/06/19 06:54:47;;;;;;;9.50;8.60;;;28.10;99.90;;;28.99;53.10;99939.56;5091147;28;20290;-63
2021/06/19 06:57:16;;;;;;;9.48;8.68;;;28.00;99.90;;;29.17;53.19;99941.00;5091494;28;20214;-63
2021/06/19 06:59:45;;;;;;;9.95;9.02;;;28.10;99.90;;;29.17;53.27;99937.41;5092928;28;20256;-62
2021/06/19 07:02:13;;;;;;;9.45;8.65;;;28.10;99.90;;;29.14;54.01;99941.69;5095643;28;20204;-63
2021/06/19 07:04:41;;;;;;;9.55;8.82;;;28.20;99.90;;;29.20;52.59;99934.75;5095651;28;20207;-63
2021/06/19 07:07:11;;;;;;;9.68;8.82;;;28.20;99.90;;;29.21;53.24;99930.81;5095690;28;20606;-63
2021/06/19 07:09:39;;;;;;;10.18;9.18;;;28.20;99.90;;;29.27;52.35;99936.94;5095046;28;20207;-63
2021/06/19 07:12:09;;;;;;;9.20;8.30;;;28.30;99.90;;;29.27;51.99;99931.38;5095269;28;20719;-63
2021/06/19 07:14:37;;;;;;;9.95;9.15;;;28.30;99.90;;;29.46;52.10;99935.16;5095412;28;20200;-64
2021/06/19 07:17:07;;;;;;;9.90;9.00;;;28.40;99.90;;;29.66;51.37;99939.78;5095659;28;20295;-63
2021/06/19 07:19:36;;;;;;;10.20;9.38;;;28.50;99.90;;;29.68;51.71;99933.88;5094978;28;20204;-63
2021/06/19 07:22:06;;;;;;;9.60;8.80;;;28.60;99.90;;;29.70;52.08;99939.88;5095417;28;20204;-64
2021/06/19 07:24:37;;;;;;;9.65;8.75;;;28.70;99.90;;;29.74;51.70;99946.34;5095181;28;20617;-64
2021/06/19 07:27:07;;;;;;;9.80;8.90;;;28.70;99.90;;;29.92;52.08;99928.22;5095326;28;20188;-64
2021/06/19 07:29:35;;;;;;;9.85;8.93;;;28.80;99.90;;;30.01;52.53;99942.78;5095314;28;20251;-63
2021/06/19 07:32:05;;;;;;;9.65;8.73;;;28.90;99.90;;;30.09;51.53;99941.81;5095239;28;20200;-64
2021/06/19 07:34:33;;;;;;;9.35;8.45;;;28.90;99.90;;;30.26;51.42;99938.75;5094807;28;20212;-62
2021/06/19 07:37:01;;;;;;;9.75;8.95;;;29.10;99.90;;;30.33;51.03;99943.69;5094758;28;20393;-64
2021/06/19 07:39:29;;;;;;;9.27;8.43;;;29.10;99.90;;;30.43;51.92;99946.75;5094602;28;20778;-64
2021/06/19 07:41:59;;;;;;;8.93;8.23;;;29.30;99.90;;;30.49;51.27;99950.09;5094736;28;20749;-63
2021/06/19 07:44:27;;;;;;;9.30;8.50;;;29.40;99.90;;;30.53;51.52;99946.25;5094709;28;20295;-63
2021/06/19 07:46:55;;;;;;;9.80;8.77;;;29.40;99.90;;;30.62;49.80;99946.06;5094583;28;20204;-62
2021/06/19 07:49:23;;;;;;;9.75;8.82;;;29.50;99.90;;;30.43;50.49;99945.94;5094521;28;20702;-62
2021/06/19 07:51:51;;;;;;;9.10;8.30;;;29.40;99.90;;;30.39;50.56;99945.06;5094717;28;20234;-63
2021/06/19 07:54:19;;;;;;;9.43;8.63;;;29.30;99.90;;;30.35;50.97;99949.72;5094399;28;20544;-64
2021/06/19 07:56:47;;;;;;;9.93;8.85;;;29.40;99.90;;;30.34;51.32;99948.09;5094549;28;20227;-63
2021/06/19 07:59:17;;;;;;;9.07;8.35;;;29.30;99.90;;;30.54;52.02;99950.66;5094763;28;20224;-63
2021/06/19 08:01:45;;;;;;;9.48;8.60;;;29.30;99.90;;;30.67;52.22;99948.59;5094475;28;20302;-63
2021/06/19 08:04:13;;;;;;;11.35;9.57;;;29.40;99.90;;;30.80;50.31;99948.16;5094394;28;20207;-64
2021/06/19 08:06:41;;;;;;;8.95;8.25;;;29.50;99.90;;;30.79;51.90;99946.56;5094633;28;20196;-63
2021/06/19 08:09:09;;;;;;;10.43;9.50;;;29.60;99.90;;;30.89;52.44;99939.66;5093925;28;20616;-63
2021/06/19 08:11:37;;;;;;;10.32;9.40;;;29.70;99.90;;;30.94;50.58;99950.50;5094245;28;20299;-63
2021/06/19 08:14:05;;;;;;;9.98;9.07;;;29.70;99.90;;;30.88;51.14;99954.75;5094341;28;20202;-63
2021/06/19 08:16:34;;;;;;;10.00;9.13;;;29.80;99.90;;;30.82;51.21;99950.59;5094350;28;20231;-63
2021/06/19 08:19:03;;;;;;;10.30;9.27;;;29.70;99.90;;;30.92;51.43;99956.44;5093725;28;20767;-63
2021/06/19 08:21:31;;;;;;;9.80;9.00;;;29.80;99.90;;;31.03;50.87;99951.94;5094173;28;20206;-63
2021/06/19 08:23:59;;;;;;;10.07;9.13;;;29.80;99.90;;;31.08;51.07;99962.00;5094223;28;20196;-64
2021/06/19 08:26:27;;;;;;;11.32;9.15;;;29.90;99.90;;;31.19;50.80;99953.91;5094225;28;20226;-63
2021/06/19 08:28:55;;;;;;;10.70;9.70;;;29.90;99.90;;;31.15;50.84;99941.88;5094027;28;20303;-63
2021/06/19 08:31:23;;;;;;;9.77;8.98;;;30.00;99.90;;;31.15;51.31;99942.69;5094095;28;20699;-64
2021/06/19 08:33:52;;;;;;;8.90;8.20;;;29.90;99.90;;;31.28;50.72;99948.94;5093905;28;20253;-63
2021/06/19 08:36:20;;;;;;;9.75;8.85;;;30.00;99.90;;;31.58;50.96;99938.91;5093983;28;20239;-64
2021/06/19 08:38:48;;;;;;;10.25;8.98;;;30.10;99.90;;;31.74;49.62;99943.28;5093820;28;20207;-63
2021/06/19 08:41:19;;;;;;;10.20;9.20;;;30.30;99.90;;;31.96;49.42;99944.53;5093649;28;20680;-63
2021/06/19 08:43:46;;;;;;;8.82;8.13;;;30.50;99.90;;;32.17;47.86;99947.75;5093498;28;20186;-64
2021/06/19 08:46:19;;;;;;;9.48;8.63;;;30.60;99.90;;;32.58;48.05;99946.16;5093726;28;20200;-63
2021/06/19 08:48:54;;;;;;;8.98;8.18;;;30.90;99.90;;;32.68;45.86;99943.56;5093678;28;20186;-63
2021/06/19 08:51:24;;;;;;;9.50;8.70;;;31.10;99.90;;;32.72;45.88;99952.81;5093603;28;20239;-64
2021/06/19 08:53:52;;;;;;;9.20;8.45;;;31.30;99.90;;;32.97;46.18;99951.28;5093409;28;20279;-63
2021/06/19 08:56:22;;;;;;;9.65;8.85;;;31.40;99.90;;;33.23;46.39;99947.72;5093651;28;20196;-62
2021/06/19 08:58:51;;;;;;;9.70;8.80;;;31.50;99.90;;;33.35;46.00;99950.28;5093371;28;20204;-64
2021/06/19 09:01:19;;;;;;;9.07;8.27;;;31.70;99.90;;;33.32;46.06;99945.44;5093453;28;20337;-63
2021/06/19 09:03:47;;;;;;;9.15;8.25;;;31.80;99.90;;;32.99;45.77;99948.94;5092947;28;20220;-64
2021/06/19 09:06:20;;;;;;;9.43;8.50;;;31.80;99.90;;;32.86;46.95;99960.63;5093571;28;20290;-63
2021/06/19 09:09:10;;;;;;;9.13;8.43;;;31.70;99.90;;;32.81;46.40;99952.56;5093339;28;20185;-63
2021/06/19 09:11:41;;;;;;;8.75;8.15;;;31.70;99.90;;;32.89;46.42;99948.72;5093138;28;20276;-63
2021/06/19 09:14:12;;;;;;;8.68;7.95;;;31.60;99.90;;;33.01;45.79;99946.56;5093099;28;20850;-63
2021/06/19 09:16:44;;;;;;;9.48;8.77;;;31.70;99.90;;;32.96;44.35;99949.69;5093186;28;20184;-63
2021/06/19 09:19:31;;;;;;;9.73;8.82;;;31.70;99.90;;;33.17;44.53;99951.97;5092714;28;20199;-64
2021/06/19 09:22:15;;;;;;;9.57;8.27;;;31.80;99.90;;;33.28;43.97;99939.00;5092396;28;20219;-63
2021/06/19 09:24:47;;;;;;;9.20;8.40;;;31.80;99.90;;;33.30;43.54;99947.81;5092789;28;20708;-64
2021/06/19 09:27:31;;;;;;;9.30;8.40;;;32.00;99.90;;;33.27;42.68;99948.53;5093297;28;20185;-65
2021/06/19 09:30:14;;;;;;;8.55;7.90;;;32.00;99.90;;;33.43;41.40;99951.22;5093049;28;20180;-63
2021/06/19 09:32:45;;;;;;;9.38;8.05;;;32.00;99.90;;;33.42;40.92;99952.38;5093142;28;20309;-63
2021/06/19 09:35:16;;;;;;;8.65;7.75;;;32.10;99.90;;;33.57;41.48;99955.03;5092871;28;20191;-64
2021/06/19 09:37:49;;;;;;;8.45;7.75;;;32.10;99.90;;;33.72;41.06;99959.63;5092322;28;20566;-64
2021/06/19 09:40:26;;;;;;;9.40;8.48;;;32.30;99.90;;;33.76;41.13;99956.88;5092419;28;20246;-63
2021/06/19 09:43:11;;;;;;;8.52;7.25;;;32.30;99.90;;;34.19;40.89;99962.66;5092864;28;20263;-62
2021/06/19 09:45:42;;;;;;;9.35;8.50;;;32.40;99.90;;;34.40;40.96;99962.88;5092841;28;20188;-63
2021/06/19 09:48:26;;;;;;;8.98;7.95;;;32.60;99.90;;;34.26;41.75;99959.13;5092698;28;20568;-64
2021/06/19 09:51:11;;;;;;;8.75;7.95;;;32.60;99.90;;;34.19;41.66;99964.66;5092341;28;20219;-64
2021/06/19 09:53:43;;;;;;;8.68;7.88;;;32.60;99.90;;;34.05;42.72;99959.69;5092384;28;20277;-63
2021/06/19 09:56:14;;;;;;;9.02;8.13;;;32.60;99.90;;;33.86;43.20;99964.59;5092732;28;20195;-63
2021/06/19 09:58:44;;;;;;;10.80;8.45;;;32.60;99.90;;;33.95;42.60;99960.34;5092309;28;20620;-64
2021/06/19 10:01:35;;;;;;;9.20;8.30;;;32.50;99.90;;;33.95;42.17;99960.34;5092660;28;20200;-64
2021/06/19 10:04:05;;;;;;;10.40;9.23;;;32.50;99.90;;;33.91;41.95;99967.06;5092435;28;20283;-63
2021/06/19 10:06:36;;;;;;;8.68;7.90;;;32.50;99.90;;;33.83;42.63;99968.13;5092814;28;20287;-63
2021/06/19 10:09:06;;;;;;;9.48;8.68;;;32.40;99.90;;;34.15;42.23;99966.59;5092033;28;20190;-64
2021/06/19 10:11:35;;;;;;;9.70;8.90;;;32.50;99.90;;;34.13;42.64;99966.97;5092690;28;20186;-63
2021/06/19 10:14:04;;;;;;;9.35;8.50;;;32.60;99.90;;;33.99;41.36;99971.59;5092946;28;20291;-63
2021/06/19 10:16:32;;;;;;;9.75;8.70;;;32.60;99.90;;;33.96;41.47;99969.56;5092937;28;20207;-63
2021/06/19 10:19:00;;;;;;;9.23;8.30;;;32.60;99.90;;;34.28;40.96;99967.97;5092453;28;20223;-64
2021/06/19 10:21:28;;;;;;;9.48;8.68;;;32.70;99.90;;;34.42;40.64;99965.31;5092120;28;20573;-63
2021/06/19 10:23:57;;;;;;;9.38;8.60;;;32.80;99.90;;;34.48;40.90;99975.00;5092428;28;20307;-63
2021/06/19 10:26:27;;;;;;;9.98;9.07;;;32.90;99.90;;;34.20;40.79;99969.03;5092474;28;20687;-63
2021/06/19 10:28:59;;;;;;;12.45;9.13;;;32.90;99.90;;;34.24;41.21;99972.69;5092199;28;20200;-63